sensor_id;sensor_type;location;lat;lon;timestamp;pressure;altitude;pressure_sealevel;temperature;humidity
47280;BME280;34064;44.942;0.008;2023-05-03T00:01:06;98983.03;;;18.25;44.52
47280;BME280;34064;44.942;0.008;2023-05-03T00:03:32;98986.03;;;18.22;44.35
47280;BME280;34064;44.942;0.008;2023-05-03T00:06:11;98978.84;;;18.22;44.47
47280;BME280;34064;44.942;0.008;2023-05-03T00:08:38;98971.59;;;18.23;44.67
47280;BME280;34064;44.942;0.008;2023-05-03T00:11:05;98970.56;;;18.16;44.49
47280;BME280;34064;44.942;0.008;2023-05-03T00:13:31;98974.56;;;18.12;44.67
47280;BME280;34064;44.942;0.008;2023-05-03T00:15:58;98969.06;;;18.13;44.91
47280;BME280;34064;44.942;0.008;2023-05-03T00:18:24;98974.91;;;18.08;44.85
47280;BME280;34064;44.942;0.008;2023-05-03T00:20:51;98967.00;;;18.07;44.76
47280;BME280;34064;44.942;0.008;2023-05-03T00:23:18;98971.69;;;18.05;44.76
47280;BME280;34064;44.942;0.008;2023-05-03T00:25:44;98969.16;;;18.03;44.79
47280;BME280;34064;44.942;0.008;2023-05-03T00:28:11;98967.34;;;18.04;44.94
47280;BME280;34064;44.942;0.008;2023-05-03T00:30:37;98964.09;;;18.00;44.84
47280;BME280;34064;44.942;0.008;2023-05-03T00:33:03;98972.50;;;17.97;45.28
47280;BME280;34064;44.942;0.008;2023-05-03T00:35:30;98967.06;;;17.89;45.28
47280;BME280;34064;44.942;0.008;2023-05-03T00:37:56;98966.06;;;17.90;45.06
47280;BME280;34064;44.942;0.008;2023-05-03T00:40:22;98962.50;;;17.81;45.76
47280;BME280;34064;44.942;0.008;2023-05-03T00:42:49;98958.81;;;17.82;45.53
47280;BME280;34064;44.942;0.008;2023-05-03T00:45:15;98954.25;;;17.83;45.45
47280;BME280;34064;44.942;0.008;2023-05-03T00:47:42;98948.38;;;17.79;45.37
47280;BME280;34064;44.942;0.008;2023-05-03T00:50:09;98949.53;;;17.76;45.48
47280;BME280;34064;44.942;0.008;2023-05-03T00:52:38;98944.16;;;17.76;45.46
47280;BME280;34064;44.942;0.008;2023-05-03T00:55:06;98939.09;;;17.73;45.56
47280;BME280;34064;44.942;0.008;2023-05-03T00:57:32;98933.91;;;17.72;45.44
47280;BME280;34064;44.942;0.008;2023-05-03T01:00:00;98939.44;;;17.70;45.52
47280;BME280;34064;44.942;0.008;2023-05-03T01:02:27;98939.38;;;17.62;45.82
47280;BME280;34064;44.942;0.008;2023-05-03T01:04:54;98941.41;;;17.60;45.70
47280;BME280;34064;44.942;0.008;2023-05-03T01:12:52;98925.56;;;17.49;46.29
47280;BME280;34064;44.942;0.008;2023-05-03T01:18:31;98914.09;;;17.38;46.66
47280;BME280;34064;44.942;0.008;2023-05-03T01:21:00;98906.84;;;17.39;46.13
47280;BME280;34064;44.942;0.008;2023-05-03T01:26:31;98905.13;;;17.29;46.66
47280;BME280;34064;44.942;0.008;2023-05-03T01:28:58;98895.25;;;17.30;46.49
47280;BME280;34064;44.942;0.008;2023-05-03T01:32:06;98900.56;;;17.22;46.92
47280;BME280;34064;44.942;0.008;2023-05-03T01:34:41;98898.88;;;17.21;46.55
47280;BME280;34064;44.942;0.008;2023-05-03T01:37:14;98900.69;;;17.20;46.57
47280;BME280;34064;44.942;0.008;2023-05-03T01:39:50;98905.25;;;17.20;46.80
47280;BME280;34064;44.942;0.008;2023-05-03T01:42:20;98900.69;;;17.20;46.57
47280;BME280;34064;44.942;0.008;2023-05-03T01:44:48;98901.72;;;17.19;46.69
47280;BME280;34064;44.942;0.008;2023-05-03T01:47:15;98904.72;;;17.16;46.78
47280;BME280;34064;44.942;0.008;2023-05-03T01:49:41;98904.50;;;17.09;47.09
47280;BME280;34064;44.942;0.008;2023-05-03T01:52:08;98902.28;;;17.05;47.11
47280;BME280;34064;44.942;0.008;2023-05-03T01:54:34;98903.13;;;17.05;47.02
47280;BME280;34064;44.942;0.008;2023-05-03T01:57:01;98898.09;;;17.02;47.08
47280;BME280;34064;44.942;0.008;2023-05-03T01:59:28;98902.75;;;17.00;47.30
47280;BME280;34064;44.942;0.008;2023-05-03T02:01:54;98905.28;;;17.02;47.01
47280;BME280;34064;44.942;0.008;2023-05-03T02:04:20;98901.75;;;17.01;46.89
47280;BME280;34064;44.942;0.008;2023-05-03T02:06:47;98895.69;;;16.99;47.17
47280;BME280;34064;44.942;0.008;2023-05-03T02:09:13;98897.84;;;16.95;47.16
47280;BME280;34064;44.942;0.008;2023-05-03T02:11:40;98891.94;;;16.92;47.57
47280;BME280;34064;44.942;0.008;2023-05-03T02:14:07;98890.56;;;16.88;47.34
47280;BME280;34064;44.942;0.008;2023-05-03T02:16:33;98894.03;;;16.80;47.91
47280;BME280;34064;44.942;0.008;2023-05-03T02:19:00;98898.53;;;16.79;47.53
47280;BME280;34064;44.942;0.008;2023-05-03T02:21:27;98882.78;;;16.76;47.42
47280;BME280;34064;44.942;0.008;2023-05-03T02:23:53;98885.94;;;16.72;47.81
47280;BME280;34064;44.942;0.008;2023-05-03T02:26:20;98900.63;;;16.67;47.55
47280;BME280;34064;44.942;0.008;2023-05-03T02:28:46;98897.41;;;16.64;47.78
47280;BME280;34064;44.942;0.008;2023-05-03T02:31:13;98897.88;;;16.59;48.16
47280;BME280;34064;44.942;0.008;2023-05-03T02:33:39;98899.03;;;16.57;47.92
47280;BME280;34064;44.942;0.008;2023-05-03T02:36:06;98899.34;;;16.53;47.95
47280;BME280;34064;44.942;0.008;2023-05-03T02:38:33;98898.81;;;16.50;47.84
47280;BME280;34064;44.942;0.008;2023-05-03T02:40:59;98894.59;;;16.47;47.99
47280;BME280;34064;44.942;0.008;2023-05-03T02:43:25;98900.25;;;16.44;47.94
47280;BME280;34064;44.942;0.008;2023-05-03T02:45:52;98899.56;;;16.42;48.11
47280;BME280;34064;44.942;0.008;2023-05-03T02:48:18;98891.81;;;16.39;47.88
47280;BME280;34064;44.942;0.008;2023-05-03T02:50:44;98894.66;;;16.37;48.12
47280;BME280;34064;44.942;0.008;2023-05-03T02:53:11;98898.66;;;16.33;48.03
47280;BME280;34064;44.942;0.008;2023-05-03T02:55:38;98895.41;;;16.30;48.25
47280;BME280;34064;44.942;0.008;2023-05-03T02:58:04;98895.56;;;16.28;48.31
47280;BME280;34064;44.942;0.008;2023-05-03T03:00:31;98893.34;;;16.24;48.86
47280;BME280;34064;44.942;0.008;2023-05-03T03:02:57;98890.97;;;16.20;48.62
47280;BME280;34064;44.942;0.008;2023-05-03T03:05:24;98893.97;;;16.17;48.21
47280;BME280;34064;44.942;0.008;2023-05-03T03:07:50;98890.59;;;16.15;48.39
47280;BME280;34064;44.942;0.008;2023-05-03T03:10:17;98884.69;;;16.12;48.76
47280;BME280;34064;44.942;0.008;2023-05-03T03:12:43;98884.84;;;16.10;48.65
47280;BME280;34064;44.942;0.008;2023-05-03T03:15:10;98886.41;;;16.03;48.91
47280;BME280;34064;44.942;0.008;2023-05-03T03:17:36;98882.22;;;16.00;48.85
47280;BME280;34064;44.942;0.008;2023-05-03T03:20:06;98880.84;;;15.96;48.94
47280;BME280;34064;44.942;0.008;2023-05-03T03:22:33;98882.28;;;15.90;48.78
47280;BME280;34064;44.942;0.008;2023-05-03T03:24:59;98880.06;;;15.86;49.06
47280;BME280;34064;44.942;0.008;2023-05-03T03:27:25;98876.09;;;15.80;49.04
47280;BME280;34064;44.942;0.008;2023-05-03T03:29:52;98890.22;;;15.72;49.63
47280;BME280;34064;44.942;0.008;2023-05-03T03:32:18;98887.47;;;15.64;49.69
47280;BME280;34064;44.942;0.008;2023-05-03T03:34:44;98883.25;;;15.62;49.44
47280;BME280;34064;44.942;0.008;2023-05-03T03:37:11;98889.72;;;15.59;49.42
47280;BME280;34064;44.942;0.008;2023-05-03T03:39:37;98878.78;;;15.52;49.74
47280;BME280;34064;44.942;0.008;2023-05-03T03:42:06;98887.78;;;15.51;49.39
47280;BME280;34064;44.942;0.008;2023-05-03T03:44:32;98881.34;;;15.44;49.79
47280;BME280;34064;44.942;0.008;2023-05-03T03:46:58;98876.28;;;15.41;49.46
47280;BME280;34064;44.942;0.008;2023-05-03T03:49:25;98869.53;;;15.37;49.56
47280;BME280;34064;44.942;0.008;2023-05-03T03:51:51;98866.19;;;15.35;49.51
47280;BME280;34064;44.942;0.008;2023-05-03T03:54:18;98867.44;;;15.31;49.57
47280;BME280;34064;44.942;0.008;2023-05-03T03:56:44;98858.72;;;15.28;49.75
47280;BME280;34064;44.942;0.008;2023-05-03T03:59:10;98858.88;;;15.27;49.71
47280;BME280;34064;44.942;0.008;2023-05-03T04:01:37;98856.63;;;15.22;50.16
47280;BME280;34064;44.942;0.008;2023-05-03T04:04:04;98860.72;;;15.17;50.11
47280;BME280;34064;44.942;0.008;2023-05-03T04:06:30;98858.66;;;15.10;50.09
47280;BME280;34064;44.942;0.008;2023-05-03T04:08:58;98854.28;;;15.09;50.03
47280;BME280;34064;44.942;0.008;2023-05-03T04:11:24;98848.38;;;15.06;50.19
47280;BME280;34064;44.942;0.008;2023-05-03T04:13:50;98856.84;;;15.01;50.58
47280;BME280;34064;44.942;0.008;2023-05-03T04:16:17;98860.50;;;15.00;50.37
47280;BME280;34064;44.942;0.008;2023-05-03T04:18:44;98859.78;;;14.98;50.42
47280;BME280;34064;44.942;0.008;2023-05-03T04:21:10;98856.69;;;14.93;50.45
47280;BME280;34064;44.942;0.008;2023-05-03T04:23:36;98851.78;;;14.88;50.16
47280;BME280;34064;44.942;0.008;2023-05-03T04:26:03;98861.81;;;14.86;50.35
47280;BME280;34064;44.942;0.008;2023-05-03T04:28:29;98865.03;;;14.80;50.54
47280;BME280;34064;44.942;0.008;2023-05-03T04:30:56;98859.00;;;14.78;50.61
47280;BME280;34064;44.942;0.008;2023-05-03T04:33:24;98860.25;;;14.74;50.66
47280;BME280;34064;44.942;0.008;2023-05-03T04:35:51;98864.19;;;14.70;50.59
47280;BME280;34064;44.942;0.008;2023-05-03T04:38:17;98860.69;;;14.69;50.34
47280;BME280;34064;44.942;0.008;2023-05-03T04:40:45;98861.53;;;14.70;50.32
47280;BME280;34064;44.942;0.008;2023-05-03T04:43:12;98861.66;;;14.68;50.37
47280;BME280;34064;44.942;0.008;2023-05-03T04:45:39;98859.88;;;14.69;50.62
47280;BME280;34064;44.942;0.008;2023-05-03T04:48:06;98867.16;;;14.66;50.61
47280;BME280;34064;44.942;0.008;2023-05-03T04:50:33;98863.75;;;14.64;50.51
47280;BME280;34064;44.942;0.008;2023-05-03T04:53:00;98862.06;;;14.63;50.92
47280;BME280;34064;44.942;0.008;2023-05-03T04:55:26;98866.03;;;14.59;51.02
47280;BME280;34064;44.942;0.008;2023-05-03T04:57:54;98868.81;;;14.58;50.81
47280;BME280;34064;44.942;0.008;2023-05-03T05:00:20;98879.22;;;14.51;51.46
47280;BME280;34064;44.942;0.008;2023-05-03T05:02:50;98880.06;;;14.42;51.54
47280;BME280;34064;44.942;0.008;2023-05-03T05:05:21;98881.78;;;14.33;51.55
47280;BME280;34064;44.942;0.008;2023-05-03T05:07:49;98888.25;;;14.30;51.22
47280;BME280;34064;44.942;0.008;2023-05-03T05:10:16;98888.94;;;14.32;51.33
47280;BME280;34064;44.942;0.008;2023-05-03T05:12:43;98885.59;;;14.30;51.56
47280;BME280;34064;44.942;0.008;2023-05-03T05:15:10;98885.59;;;14.30;51.60
47280;BME280;34064;44.942;0.008;2023-05-03T05:17:36;98889.78;;;14.33;51.14
47280;BME280;34064;44.942;0.008;2023-05-03T05:20:03;98888.66;;;14.35;51.21
47280;BME280;34064;44.942;0.008;2023-05-03T05:22:32;98884.03;;;14.38;51.00
47280;BME280;34064;44.942;0.008;2023-05-03T05:24:59;98886.56;;;14.39;51.09
47280;BME280;34064;44.942;0.008;2023-05-03T05:27:26;98889.22;;;14.39;51.32
47280;BME280;34064;44.942;0.008;2023-05-03T05:29:53;98878.53;;;14.39;51.60
47280;BME280;34064;44.942;0.008;2023-05-03T05:32:19;98878.13;;;14.44;51.43
47280;BME280;34064;44.942;0.008;2023-05-03T05:34:47;98873.31;;;14.47;51.15
47280;BME280;34064;44.942;0.008;2023-05-03T05:37:22;98877.53;;;14.50;51.24
47280;BME280;34064;44.942;0.008;2023-05-03T05:39:49;98873.88;;;14.51;51.54
47280;BME280;34064;44.942;0.008;2023-05-03T05:42:15;98873.22;;;14.49;51.75
47280;BME280;34064;44.942;0.008;2023-05-03T05:44:42;98882.75;;;14.51;51.93
47280;BME280;34064;44.942;0.008;2023-05-03T05:47:08;98871.66;;;14.56;51.82
47280;BME280;34064;44.942;0.008;2023-05-03T05:49:35;98865.16;;;14.59;51.81
47280;BME280;34064;44.942;0.008;2023-05-03T05:52:02;98860.09;;;14.65;51.78
47280;BME280;34064;44.942;0.008;2023-05-03T05:54:28;98863.53;;;14.68;52.06
47280;BME280;34064;44.942;0.008;2023-05-03T05:56:55;98867.72;;;14.70;52.16
47280;BME280;34064;44.942;0.008;2023-05-03T05:59:22;98871.66;;;14.76;51.82
47280;BME280;34064;44.942;0.008;2023-05-03T06:01:48;98868.00;;;14.77;51.64
47280;BME280;34064;44.942;0.008;2023-05-03T06:04:15;98871.34;;;14.79;51.69
47280;BME280;34064;44.942;0.008;2023-05-03T06:06:42;98868.25;;;14.84;52.04
47280;BME280;34064;44.942;0.008;2023-05-03T06:09:08;98871.78;;;14.84;52.44
47280;BME280;34064;44.942;0.008;2023-05-03T06:11:35;98864.88;;;14.91;52.22
47280;BME280;34064;44.942;0.008;2023-05-03T06:14:02;98868.97;;;14.95;52.95
47280;BME280;34064;44.942;0.008;2023-05-03T06:16:29;98864.00;;;15.01;52.58
47280;BME280;34064;44.942;0.008;2023-05-03T06:18:55;98862.31;;;15.09;51.88
47280;BME280;34064;44.942;0.008;2023-05-03T06:21:22;98851.84;;;15.16;51.78
47280;BME280;34064;44.942;0.008;2023-05-03T06:23:48;98847.91;;;15.20;52.17
47280;BME280;34064;44.942;0.008;2023-05-03T06:26:14;98845.34;;;15.28;52.13
47280;BME280;34064;44.942;0.008;2023-05-03T06:28:42;98845.31;;;15.38;51.93
47280;BME280;34064;44.942;0.008;2023-05-03T06:31:10;98839.19;;;15.46;52.09
47280;BME280;34064;44.942;0.008;2023-05-03T06:33:37;98828.47;;;15.56;51.70
47280;BME280;34064;44.942;0.008;2023-05-03T06:36:03;98820.34;;;15.66;52.02
47280;BME280;34064;44.942;0.008;2023-05-03T06:38:30;98810.72;;;15.73;51.80
47280;BME280;34064;44.942;0.008;2023-05-03T06:40:56;98799.00;;;15.84;51.61
47280;BME280;34064;44.942;0.008;2023-05-03T06:43:23;98806.13;;;15.93;52.09
47280;BME280;34064;44.942;0.008;2023-05-03T06:45:50;98789.97;;;16.03;51.88
47280;BME280;34064;44.942;0.008;2023-05-03T06:48:18;98787.38;;;16.11;51.77
47280;BME280;34064;44.942;0.008;2023-05-03T06:50:44;98768.91;;;16.26;51.41
47280;BME280;34064;44.942;0.008;2023-05-03T06:53:11;98772.34;;;16.36;51.32
47280;BME280;34064;44.942;0.008;2023-05-03T06:55:37;98780.13;;;16.48;51.14
47280;BME280;34064;44.942;0.008;2023-05-03T06:58:04;98769.16;;;16.59;51.00
47280;BME280;34064;44.942;0.008;2023-05-03T07:00:35;98758.31;;;16.69;50.88
47280;BME280;34064;44.942;0.008;2023-05-03T07:03:03;98749.19;;;16.80;50.94
47280;BME280;34064;44.942;0.008;2023-05-03T07:05:30;98748.75;;;16.93;50.52
47280;BME280;34064;44.942;0.008;2023-05-03T07:07:56;98741.28;;;17.05;50.34
47280;BME280;34064;44.942;0.008;2023-05-03T07:10:22;98741.13;;;17.14;50.02
47280;BME280;34064;44.942;0.008;2023-05-03T07:12:50;98730.81;;;17.28;50.18
47280;BME280;34064;44.942;0.008;2023-05-03T07:15:16;98723.78;;;17.43;49.60
47280;BME280;34064;44.942;0.008;2023-05-03T07:17:43;98719.97;;;17.54;49.36
47280;BME280;34064;44.942;0.008;2023-05-03T07:20:09;98716.44;;;17.62;49.11
47280;BME280;34064;44.942;0.008;2023-05-03T07:22:36;98709.09;;;17.72;49.02
47280;BME280;34064;44.942;0.008;2023-05-03T07:25:02;98698.88;;;17.84;48.97
47280;BME280;34064;44.942;0.008;2023-05-03T07:27:29;98701.09;;;17.97;48.83
47280;BME280;34064;44.942;0.008;2023-05-03T07:29:56;98689.66;;;18.12;48.51
47280;BME280;34064;44.942;0.008;2023-05-03T07:32:22;98686.44;;;18.24;48.19
47280;BME280;34064;44.942;0.008;2023-05-03T07:34:49;98684.25;;;18.36;47.72
47280;BME280;34064;44.942;0.008;2023-05-03T07:37:15;98679.66;;;18.53;47.84
47280;BME280;34064;44.942;0.008;2023-05-03T07:39:42;98674.41;;;18.68;47.26
47280;BME280;34064;44.942;0.008;2023-05-03T07:42:10;98665.47;;;18.84;47.28
47280;BME280;34064;44.942;0.008;2023-05-03T07:44:36;98658.03;;;18.95;46.94
47280;BME280;34064;44.942;0.008;2023-05-03T07:47:02;98659.81;;;19.11;46.48
47280;BME280;34064;44.942;0.008;2023-05-03T07:49:29;98647.63;;;19.23;45.95
47280;BME280;34064;44.942;0.008;2023-05-03T07:51:58;98639.81;;;19.37;45.69
47280;BME280;34064;44.942;0.008;2023-05-03T07:54:24;98632.34;;;19.47;45.30
47280;BME280;34064;44.942;0.008;2023-05-03T07:56:51;98629.22;;;19.58;45.24
47280;BME280;34064;44.942;0.008;2023-05-03T07:59:17;98628.44;;;19.73;44.97
47280;BME280;34064;44.942;0.008;2023-05-03T08:01:43;98616.56;;;19.82;44.68
47280;BME280;34064;44.942;0.008;2023-05-03T08:04:10;98617.53;;;19.89;44.77
47280;BME280;34064;44.942;0.008;2023-05-03T08:06:36;98606.97;;;20.03;44.14
47280;BME280;34064;44.942;0.008;2023-05-03T08:09:04;98609.91;;;20.16;43.89
47280;BME280;34064;44.942;0.008;2023-05-03T08:11:30;98600.31;;;20.29;43.42
47280;BME280;34064;44.942;0.008;2023-05-03T08:13:57;98599.59;;;20.35;43.55
47280;BME280;34064;44.942;0.008;2023-05-03T08:16:23;98586.47;;;20.47;43.41
47280;BME280;34064;44.942;0.008;2023-05-03T08:18:50;98588.97;;;20.48;43.41
47280;BME280;34064;44.942;0.008;2023-05-03T08:21:16;98579.19;;;20.62;43.23
47280;BME280;34064;44.942;0.008;2023-05-03T08:23:43;98572.66;;;20.71;42.59
47280;BME280;34064;44.942;0.008;2023-05-03T08:26:10;98561.59;;;20.81;42.31
47280;BME280;34064;44.942;0.008;2023-05-03T08:28:39;98570.84;;;20.94;42.59
47280;BME280;34064;44.942;0.008;2023-05-03T08:31:05;98566.41;;;21.01;41.92
47280;BME280;34064;44.942;0.008;2023-05-03T08:33:32;98562.34;;;21.12;41.50
47280;BME280;34064;44.942;0.008;2023-05-03T08:35:59;98556.00;;;21.19;40.98
47280;BME280;34064;44.942;0.008;2023-05-03T08:38:25;98563.97;;;21.28;41.81
47280;BME280;34064;44.942;0.008;2023-05-03T08:40:54;98554.94;;;21.42;41.70
47280;BME280;34064;44.942;0.008;2023-05-03T08:43:25;98548.47;;;21.58;40.71
47280;BME280;34064;44.942;0.008;2023-05-03T08:45:52;98540.59;;;21.63;40.76
47280;BME280;34064;44.942;0.008;2023-05-03T08:48:18;98538.84;;;21.77;40.41
47280;BME280;34064;44.942;0.008;2023-05-03T08:50:45;98538.06;;;21.84;39.89
47280;BME280;34064;44.942;0.008;2023-05-03T08:53:12;98529.81;;;21.92;40.01
47280;BME280;34064;44.942;0.008;2023-05-03T08:55:38;98530.72;;;22.06;39.51
47280;BME280;34064;44.942;0.008;2023-05-03T08:58:08;98529.97;;;22.19;39.76
47280;BME280;34064;44.942;0.008;2023-05-03T09:00:37;98519.63;;;22.29;39.27
47280;BME280;34064;44.942;0.008;2023-05-03T09:03:04;98511.59;;;22.42;38.04
47280;BME280;34064;44.942;0.008;2023-05-03T09:05:32;98516.09;;;22.35;38.67
47280;BME280;34064;44.942;0.008;2023-05-03T09:08:12;98515.59;;;22.53;38.88
47280;BME280;34064;44.942;0.008;2023-05-03T09:10:40;98506.47;;;22.68;38.83
47280;BME280;34064;44.942;0.008;2023-05-03T09:13:08;98509.44;;;22.80;38.46
47280;BME280;34064;44.942;0.008;2023-05-03T09:15:35;98495.91;;;22.93;37.65
47280;BME280;34064;44.942;0.008;2023-05-03T09:18:11;98496.13;;;23.05;37.81
47280;BME280;34064;44.942;0.008;2023-05-03T09:20:39;98500.53;;;23.13;37.33
47280;BME280;34064;44.942;0.008;2023-05-03T09:23:07;98493.91;;;23.22;37.41
47280;BME280;34064;44.942;0.008;2023-05-03T09:25:47;98482.06;;;23.36;37.34
47280;BME280;34064;44.942;0.008;2023-05-03T09:28:17;98488.72;;;23.41;37.06
47280;BME280;34064;44.942;0.008;2023-05-03T09:30:45;98478.28;;;23.51;36.74
47280;BME280;34064;44.942;0.008;2023-05-03T09:33:13;98479.72;;;23.60;37.07
47280;BME280;34064;44.942;0.008;2023-05-03T09:38:28;98469.25;;;23.91;36.51
47280;BME280;34064;44.942;0.008;2023-05-03T09:40:54;98471.97;;;23.97;36.43
47280;BME280;34064;44.942;0.008;2023-05-03T09:43:21;98464.84;;;24.10;35.89
47280;BME280;34064;44.942;0.008;2023-05-03T09:45:47;98464.19;;;24.21;36.17
47280;BME280;34064;44.942;0.008;2023-05-03T09:48:14;98458.53;;;24.29;36.12
47280;BME280;34064;44.942;0.008;2023-05-03T09:50:42;98455.16;;;24.41;35.64
47280;BME280;34064;44.942;0.008;2023-05-03T09:53:09;98452.56;;;24.53;35.82
47280;BME280;34064;44.942;0.008;2023-05-03T09:55:37;98459.41;;;24.69;35.42
47280;BME280;34064;44.942;0.008;2023-05-03T09:58:05;98453.31;;;24.73;35.20
47280;BME280;34064;44.942;0.008;2023-05-03T10:00:39;98453.69;;;24.84;35.12
47280;BME280;34064;44.942;0.008;2023-05-03T10:03:09;98446.97;;;24.86;35.40
47280;BME280;34064;44.942;0.008;2023-05-03T10:05:54;98449.00;;;24.98;35.59
47280;BME280;34064;44.942;0.008;2023-05-03T10:09:04;98428.56;;;25.14;35.28
47280;BME280;34064;44.942;0.008;2023-05-03T10:11:36;98429.91;;;25.30;35.05
47280;BME280;34064;44.942;0.008;2023-05-03T10:14:04;98427.75;;;25.45;34.65
47280;BME280;34064;44.942;0.008;2023-05-03T10:16:37;98422.59;;;25.56;34.71
47280;BME280;34064;44.942;0.008;2023-05-03T10:19:10;98420.66;;;25.63;34.81
47280;BME280;34064;44.942;0.008;2023-05-03T10:21:56;98417.03;;;25.69;34.37
47280;BME280;34064;44.942;0.008;2023-05-03T10:24:24;98414.84;;;25.78;33.84
47280;BME280;34064;44.942;0.008;2023-05-03T10:26:51;98410.97;;;25.85;34.06
47280;BME280;34064;44.942;0.008;2023-05-03T10:32:26;98404.81;;;26.15;33.98
47280;BME280;34064;44.942;0.008;2023-05-03T10:35:09;98389.41;;;26.40;34.26
47280;BME280;34064;44.942;0.008;2023-05-03T10:37:36;98379.31;;;26.59;33.89
47280;BME280;34064;44.942;0.008;2023-05-03T10:42:48;98378.38;;;26.65;32.99
47280;BME280;34064;44.942;0.008;2023-05-03T10:45:23;98384.78;;;26.71;33.03
47280;BME280;34064;44.942;0.008;2023-05-03T10:50:38;98375.34;;;26.85;32.84
47280;BME280;34064;44.942;0.008;2023-05-03T10:53:05;98368.50;;;26.94;32.71
47280;BME280;34064;44.942;0.008;2023-05-03T10:55:32;98352.75;;;27.08;32.89
47280;BME280;34064;44.942;0.008;2023-05-03T10:57:59;98360.09;;;27.20;32.66
47280;BME280;34064;44.942;0.008;2023-05-03T11:00:35;98358.69;;;27.17;32.34
47280;BME280;34064;44.942;0.008;2023-05-03T11:06:05;98348.47;;;27.36;32.32
47280;BME280;34064;44.942;0.008;2023-05-03T11:08:32;98339.84;;;27.51;32.00
47280;BME280;34064;44.942;0.008;2023-05-03T11:11:03;98337.09;;;27.63;32.10
47280;BME280;34064;44.942;0.008;2023-05-03T11:13:37;98324.25;;;27.76;32.07
47280;BME280;34064;44.942;0.008;2023-05-03T11:16:04;98326.94;;;27.87;31.14
47280;BME280;34064;44.942;0.008;2023-05-03T11:18:32;98322.94;;;27.90;31.24
47280;BME280;34064;44.942;0.008;2023-05-03T11:20:58;98321.56;;;28.05;30.87
47280;BME280;34064;44.942;0.008;2023-05-03T11:23:26;98300.44;;;28.12;30.63
47280;BME280;34064;44.942;0.008;2023-05-03T11:25:54;98301.28;;;28.29;30.29
47280;BME280;34064;44.942;0.008;2023-05-03T11:28:21;98288.00;;;28.50;30.63
47280;BME280;34064;44.942;0.008;2023-05-03T11:30:48;98277.25;;;28.60;29.97
47280;BME280;34064;44.942;0.008;2023-05-03T11:33:15;98271.34;;;28.69;29.71
47280;BME280;34064;44.942;0.008;2023-05-03T11:35:42;98261.47;;;28.79;29.81
47280;BME280;34064;44.942;0.008;2023-05-03T11:38:09;98261.09;;;28.93;29.59
47280;BME280;34064;44.942;0.008;2023-05-03T11:40:36;98256.84;;;29.02;29.99
47280;BME280;34064;44.942;0.008;2023-05-03T11:43:04;98250.28;;;29.20;29.64
47280;BME280;34064;44.942;0.008;2023-05-03T11:45:42;98239.66;;;29.41;28.98
47280;BME280;34064;44.942;0.008;2023-05-03T11:48:10;98231.63;;;29.56;27.68
47280;BME280;34064;44.942;0.008;2023-05-03T11:50:52;98234.63;;;29.55;27.34
47280;BME280;34064;44.942;0.008;2023-05-03T11:53:22;98228.91;;;29.62;27.28
47280;BME280;34064;44.942;0.008;2023-05-03T11:55:53;98232.84;;;29.71;26.77
47280;BME280;34064;44.942;0.008;2023-05-03T11:58:25;98219.25;;;29.76;26.89
47280;BME280;34064;44.942;0.008;2023-05-03T12:00:54;98224.16;;;29.74;27.08
47280;BME280;34064;44.942;0.008;2023-05-03T12:03:22;98214.47;;;29.88;26.68
47280;BME280;34064;44.942;0.008;2023-05-03T12:05:50;98207.47;;;29.98;25.42
47280;BME280;34064;44.942;0.008;2023-05-03T12:08:18;98210.59;;;30.12;25.52
47280;BME280;34064;44.942;0.008;2023-05-03T12:10:49;98203.84;;;30.25;25.21
47280;BME280;34064;44.942;0.008;2023-05-03T12:13:32;98195.75;;;30.40;25.13
47280;BME280;34064;44.942;0.008;2023-05-03T12:16:03;98195.25;;;30.43;25.45
47280;BME280;34064;44.942;0.008;2023-05-03T12:18:54;98188.69;;;30.49;25.50
47280;BME280;34064;44.942;0.008;2023-05-03T12:21:24;98188.22;;;30.53;25.80
47280;BME280;34064;44.942;0.008;2023-05-03T12:23:51;98183.91;;;30.67;25.31
47280;BME280;34064;44.942;0.008;2023-05-03T12:26:18;98177.91;;;30.70;24.81
47280;BME280;34064;44.942;0.008;2023-05-03T12:28:48;98170.84;;;30.79;24.91
47280;BME280;34064;44.942;0.008;2023-05-03T12:31:15;98169.25;;;30.94;25.28
47280;BME280;34064;44.942;0.008;2023-05-03T12:33:42;98155.44;;;31.16;24.76
47280;BME280;34064;44.942;0.008;2023-05-03T12:36:09;98157.66;;;31.24;24.86
47280;BME280;34064;44.942;0.008;2023-05-03T12:38:36;98157.13;;;31.33;25.17
47280;BME280;34064;44.942;0.008;2023-05-03T12:41:02;98154.97;;;31.45;24.41
47280;BME280;34064;44.942;0.008;2023-05-03T12:43:28;98141.25;;;31.50;25.11
47280;BME280;34064;44.942;0.008;2023-05-03T12:45:55;98137.41;;;31.56;25.24
47280;BME280;34064;44.942;0.008;2023-05-03T12:48:24;98135.50;;;31.57;24.42
47280;BME280;34064;44.942;0.008;2023-05-03T12:50:50;98133.31;;;31.59;24.45
47280;BME280;34064;44.942;0.008;2023-05-03T12:53:17;98132.78;;;31.57;24.15
47280;BME280;34064;44.942;0.008;2023-05-03T12:55:43;98132.22;;;31.65;24.42
47280;BME280;34064;44.942;0.008;2023-05-03T12:58:10;98130.63;;;31.74;24.19
47280;BME280;34064;44.942;0.008;2023-05-03T13:00:36;98131.75;;;31.79;23.95
47280;BME280;34064;44.942;0.008;2023-05-03T13:03:03;98136.13;;;31.74;23.93
47280;BME280;34064;44.942;0.008;2023-05-03T13:05:30;98146.56;;;31.83;22.97
47280;BME280;34064;44.942;0.008;2023-05-03T13:07:56;98150.13;;;31.83;23.25
47280;BME280;34064;44.942;0.008;2023-05-03T13:10:24;98153.44;;;31.91;22.86
47280;BME280;34064;44.942;0.008;2023-05-03T13:12:51;98139.13;;;31.94;23.06
47280;BME280;34064;44.942;0.008;2023-05-03T13:15:19;98138.59;;;31.97;23.29
47280;BME280;34064;44.942;0.008;2023-05-03T13:17:45;98136.13;;;32.05;22.98
47280;BME280;34064;44.942;0.008;2023-05-03T13:20:12;98141.34;;;32.02;22.89
47280;BME280;34064;44.942;0.008;2023-05-03T13:22:39;98144.94;;;31.97;23.27
47280;BME280;34064;44.942;0.008;2023-05-03T13:25:05;98143.28;;;31.96;23.33
47280;BME280;34064;44.942;0.008;2023-05-03T13:27:32;98145.75;;;31.93;23.47
47280;BME280;34064;44.942;0.008;2023-05-03T13:30:00;98147.66;;;31.92;23.92